sensor_id;sensor_type;location;lat;lon;timestamp;temperature;humidity
2999;DHT22;1509;51.964;7.628;2023-07-29T00:01:22;19.90;99.90
2999;DHT22;1509;51.964;7.628;2023-07-29T00:03:47;20.00;99.90
2999;DHT22;1509;51.964;7.628;2023-07-29T00:06:13;19.90;99.90
2999;DHT22;1509;51.964;7.628;2023-07-29T00:08:39;19.80;99.90
2999;DHT22;1509;51.964;7.628;2023-07-29T00:11:07;19.70;99.90
2999;DHT22;1509;51.964;7.628;2023-07-29T00:13:33;19.70;99.90
2999;DHT22;1509;51.964;7.628;2023-07-29T00:15:58;19.80;99.90
2999;DHT22;1509;51.964;7.628;2023-07-29T00:18:24;20.10;99.90
2999;DHT22;1509;51.964;7.628;2023-07-29T00:20:49;19.90;99.90
2999;DHT22;1509;51.964;7.628;2023-07-29T00:23:17;19.80;99.90
2999;DHT22;1509;51.964;7.628;2023-07-29T00:25:44;19.80;99.90
2999;DHT22;1509;51.964;7.628;2023-07-29T00:28:12;19.80;99.90
2999;DHT22;1509;51.964;7.628;2023-07-29T00:30:37;19.80;99.90
2999;DHT22;1509;51.964;7.628;2023-07-29T00:33:03;19.80;99.90
2999;DHT22;1509;51.964;7.628;2023-07-29T00:35:29;19.60;99.90
2999;DHT22;1509;51.964;7.628;2023-07-29T00:37:54;19.60;99.90
2999;DHT22;1509;51.964;7.628;2023-07-29T00:40:21;19.70;99.90
2999;DHT22;1509;51.964;7.628;2023-07-29T00:42:47;19.70;99.90
2999;DHT22;1509;51.964;7.628;2023-07-29T00:45:13;19.40;99.90
2999;DHT22;1509;51.964;7.628;2023-07-29T00:47:39;19.70;99.90
2999;DHT22;1509;51.964;7.628;2023-07-29T00:50:06;19.50;99.90
2999;DHT22;1509;51.964;7.628;2023-07-29T00:52:32;19.50;99.90
2999;DHT22;1509;51.964;7.628;2023-07-29T00:54:58;19.50;99.90
2999;DHT22;1509;51.964;7.628;2023-07-29T00:57:24;19.60;99.90
2999;DHT22;1509;51.964;7.628;2023-07-29T00:59:51;19.40;99.90
2999;DHT22;1509;51.964;7.628;2023-07-29T01:02:19;19.30;99.90
2999;DHT22;1509;51.964;7.628;2023-07-29T01:04:45;19.30;99.90
2999;DHT22;1509;51.964;7.628;2023-07-29T01:10:02;19.20;99.90
2999;DHT22;1509;51.964;7.628;2023-07-29T01:15:19;19.50;99.90
2999;DHT22;1509;51.964;7.628;2023-07-29T01:20:46;19.10;99.90
2999;DHT22;1509;51.964;7.628;2023-07-29T01:23:13;19.10;99.90
2999;DHT22;1509;51.964;7.628;2023-07-29T01:25:41;19.10;99.90
2999;DHT22;1509;51.964;7.628;2023-07-29T01:28:07;19.00;99.90
2999;DHT22;1509;51.964;7.628;2023-07-29T01:30:39;19.10;99.90
2999;DHT22;1509;51.964;7.628;2023-07-29T01:33:30;19.00;99.90
2999;DHT22;1509;51.964;7.628;2023-07-29T01:36:02;19.00;99.90
2999;DHT22;1509;51.964;7.628;2023-07-29T01:38:33;19.00;99.90
2999;DHT22;1509;51.964;7.628;2023-07-29T01:41:04;19.00;99.90
2999;DHT22;1509;51.964;7.628;2023-07-29T01:43:30;19.10;99.90
2999;DHT22;1509;51.964;7.628;2023-07-29T01:45:56;19.00;99.90
2999;DHT22;1509;51.964;7.628;2023-07-29T01:48:24;19.00;99.90
2999;DHT22;1509;51.964;7.628;2023-07-29T01:50:50;19.10;99.90
2999;DHT22;1509;51.964;7.628;2023-07-29T01:53:16;19.00;99.90
2999;DHT22;1509;51.964;7.628;2023-07-29T01:55:45;19.00;99.90
2999;DHT22;1509;51.964;7.628;2023-07-29T01:58:11;19.00;99.90
2999;DHT22;1509;51.964;7.628;2023-07-29T02:00:36;19.20;99.90
2999;DHT22;1509;51.964;7.628;2023-07-29T02:03:02;19.00;99.90
2999;DHT22;1509;51.964;7.628;2023-07-29T02:05:28;19.00;99.90
2999;DHT22;1509;51.964;7.628;2023-07-29T02:07:53;19.00;99.90
2999;DHT22;1509;51.964;7.628;2023-07-29T02:10:20;19.00;99.90
2999;DHT22;1509;51.964;7.628;2023-07-29T02:12:46;19.00;99.90
2999;DHT22;1509;51.964;7.628;2023-07-29T02:15:11;19.20;99.90
2999;DHT22;1509;51.964;7.628;2023-07-29T02:17:37;19.20;99.90
2999;DHT22;1509;51.964;7.628;2023-07-29T02:20:03;19.10;99.90
2999;DHT22;1509;51.964;7.628;2023-07-29T02:22:29;19.20;99.90
2999;DHT22;1509;51.964;7.628;2023-07-29T02:24:55;19.30;99.90
2999;DHT22;1509;51.964;7.628;2023-07-29T02:27:21;19.10;99.90
2999;DHT22;1509;51.964;7.628;2023-07-29T02:29:46;19.00;99.90
2999;DHT22;1509;51.964;7.628;2023-07-29T02:32:12;18.90;99.90
2999;DHT22;1509;51.964;7.628;2023-07-29T02:34:38;19.10;99.90
2999;DHT22;1509;51.964;7.628;2023-07-29T02:37:03;19.10;99.90
2999;DHT22;1509;51.964;7.628;2023-07-29T02:39:30;19.20;99.90
2999;DHT22;1509;51.964;7.628;2023-07-29T02:41:55;19.00;99.90
2999;DHT22;1509;51.964;7.628;2023-07-29T02:44:21;19.10;99.90
2999;DHT22;1509;51.964;7.628;2023-07-29T02:46:47;19.40;99.90
2999;DHT22;1509;51.964;7.628;2023-07-29T02:49:12;19.10;99.90
2999;DHT22;1509;51.964;7.628;2023-07-29T02:51:38;19.40;99.90
2999;DHT22;1509;51.964;7.628;2023-07-29T02:54:03;19.00;99.90
2999;DHT22;1509;51.964;7.628;2023-07-29T02:56:29;19.00;99.90
2999;DHT22;1509;51.964;7.628;2023-07-29T02:58:56;19.00;99.90
2999;DHT22;1509;51.964;7.628;2023-07-29T03:01:23;19.00;99.90
2999;DHT22;1509;51.964;7.628;2023-07-29T03:03:50;19.00;99.90
2999;DHT22;1509;51.964;7.628;2023-07-29T03:06:16;19.00;99.90
2999;DHT22;1509;51.964;7.628;2023-07-29T03:08:42;19.00;99.90
2999;DHT22;1509;51.964;7.628;2023-07-29T03:11:10;19.00;99.90
2999;DHT22;1509;51.964;7.628;2023-07-29T03:13:36;19.00;99.90
2999;DHT22;1509;51.964;7.628;2023-07-29T03:18:31;19.10;99.90
2999;DHT22;1509;51.964;7.628;2023-07-29T03:20:56;19.10;99.90
2999;DHT22;1509;51.964;7.628;2023-07-29T03:23:22;19.10;99.90
2999;DHT22;1509;51.964;7.628;2023-07-29T03:25:50;19.10;99.90
2999;DHT22;1509;51.964;7.628;2023-07-29T03:28:25;19.00;99.90
2999;DHT22;1509;51.964;7.628;2023-07-29T03:30:51;19.00;99.90
2999;DHT22;1509;51.964;7.628;2023-07-29T03:33:17;19.00;99.90
2999;DHT22;1509;51.964;7.628;2023-07-29T03:35:42;19.20;99.90
2999;DHT22;1509;51.964;7.628;2023-07-29T03:38:10;19.30;99.90
2999;DHT22;1509;51.964;7.628;2023-07-29T03:40:37;19.00;99.90
2999;DHT22;1509;51.964;7.628;2023-07-29T03:43:03;19.10;99.90
2999;DHT22;1509;51.964;7.628;2023-07-29T03:45:28;19.10;99.90
2999;DHT22;1509;51.964;7.628;2023-07-29T03:47:59;19.10;99.90
2999;DHT22;1509;51.964;7.628;2023-07-29T03:50:25;19.10;99.90
2999;DHT22;1509;51.964;7.628;2023-07-29T03:52:51;19.00;99.90
2999;DHT22;1509;51.964;7.628;2023-07-29T03:55:17;19.10;99.90
2999;DHT22;1509;51.964;7.628;2023-07-29T03:57:42;19.10;99.90
2999;DHT22;1509;51.964;7.628;2023-07-29T04:00:08;19.00;99.90
2999;DHT22;1509;51.964;7.628;2023-07-29T04:02:36;19.10;99.90
2999;DHT22;1509;51.964;7.628;2023-07-29T04:05:03;19.00;99.90
2999;DHT22;1509;51.964;7.628;2023-07-29T04:07:30;19.00;99.90
2999;DHT22;1509;51.964;7.628;2023-07-29T04:09:56;19.00;99.90
2999;DHT22;1509;51.964;7.628;2023-07-29T04:12:22;19.00;99.90
2999;DHT22;1509;51.964;7.628;2023-07-29T04:14:48;19.10;99.90
2999;DHT22;1509;51.964;7.628;2023-07-29T04:17:14;19.10;99.90
2999;DHT22;1509;51.964;7.628;2023-07-29T04:19:39;19.00;99.90
2999;DHT22;1509;51.964;7.628;2023-07-29T04:22:05;19.00;99.90
2999;DHT22;1509;51.964;7.628;2023-07-29T04:24:31;19.10;99.90
2999;DHT22;1509;51.964;7.628;2023-07-29T04:26:56;19.10;99.90
2999;DHT22;1509;51.964;7.628;2023-07-29T04:29:22;19.20;99.90
2999;DHT22;1509;51.964;7.628;2023-07-29T04:31:50;19.20;99.90
2999;DHT22;1509;51.964;7.628;2023-07-29T04:34:17;19.20;99.90
2999;DHT22;1509;51.964;7.628;2023-07-29T04:36:42;19.20;99.90
2999;DHT22;1509;51.964;7.628;2023-07-29T04:39:08;19.20;99.90
2999;DHT22;1509;51.964;7.628;2023-07-29T04:41:34;19.50;99.90
2999;DHT22;1509;51.964;7.628;2023-07-29T04:44:00;19.20;99.90
2999;DHT22;1509;51.964;7.628;2023-07-29T04:46:25;19.20;99.90
2999;DHT22;1509;51.964;7.628;2023-07-29T04:48:51;19.10;99.90
2999;DHT22;1509;51.964;7.628;2023-07-29T04:51:16;19.20;99.90
2999;DHT22;1509;51.964;7.628;2023-07-29T04:53:45;19.30;99.90
2999;DHT22;1509;51.964;7.628;2023-07-29T04:56:10;19.30;99.90
2999;DHT22;1509;51.964;7.628;2023-07-29T04:58:36;19.20;99.90
2999;DHT22;1509;51.964;7.628;2023-07-29T05:01:03;19.40;99.90
2999;DHT22;1509;51.964;7.628;2023-07-29T05:03:29;19.30;99.90
2999;DHT22;1509;51.964;7.628;2023-07-29T05:05:55;19.20;99.90
2999;DHT22;1509;51.964;7.628;2023-07-29T05:08:21;19.30;99.90
2999;DHT22;1509;51.964;7.628;2023-07-29T05:10:51;19.40;99.90
2999;DHT22;1509;51.964;7.628;2023-07-29T05:13:18;19.50;99.90
2999;DHT22;1509;51.964;7.628;2023-07-29T05:15:44;19.50;99.90
2999;DHT22;1509;51.964;7.628;2023-07-29T05:18:09;19.50;99.90
2999;DHT22;1509;51.964;7.628;2023-07-29T05:20:35;19.50;99.90
2999;DHT22;1509;51.964;7.628;2023-07-29T05:23:01;19.40;99.90
2999;DHT22;1509;51.964;7.628;2023-07-29T05:25:26;19.50;99.90
2999;DHT22;1509;51.964;7.628;2023-07-29T05:27:52;19.30;99.90
2999;DHT22;1509;51.964;7.628;2023-07-29T05:30:18;19.60;99.90
2999;DHT22;1509;51.964;7.628;2023-07-29T05:32:43;19.50;99.90
2999;DHT22;1509;51.964;7.628;2023-07-29T05:35:09;19.60;99.90
2999;DHT22;1509;51.964;7.628;2023-07-29T05:37:38;19.60;99.90
2999;DHT22;1509;51.964;7.628;2023-07-29T05:40:05;19.40;99.90
2999;DHT22;1509;51.964;7.628;2023-07-29T05:42:32;19.60;99.90
2999;DHT22;1509;51.964;7.628;2023-07-29T05:44:58;19.60;99.90
2999;DHT22;1509;51.964;7.628;2023-07-29T05:47:23;19.60;99.90
2999;DHT22;1509;51.964;7.628;2023-07-29T05:49:49;19.60;99.90
2999;DHT22;1509;51.964;7.628;2023-07-29T05:52:15;19.60;99.90
2999;DHT22;1509;51.964;7.628;2023-07-29T05:54:40;19.60;99.90
2999;DHT22;1509;51.964;7.628;2023-07-29T05:57:11;19.60;99.90
2999;DHT22;1509;51.964;7.628;2023-07-29T05:59:37;19.60;99.90
2999;DHT22;1509;51.964;7.628;2023-07-29T06:02:02;19.30;99.90
2999;DHT22;1509;51.964;7.628;2023-07-29T06:04:28;19.50;99.90
2999;DHT22;1509;51.964;7.628;2023-07-29T06:06:54;19.40;99.90
2999;DHT22;1509;51.964;7.628;2023-07-29T06:09:24;19.60;99.90
2999;DHT22;1509;51.964;7.628;2023-07-29T06:11:50;19.90;99.90
2999;DHT22;1509;51.964;7.628;2023-07-29T06:14:16;19.70;99.90
2999;DHT22;1509;51.964;7.628;2023-07-29T06:16:42;19.80;99.90
2999;DHT22;1509;51.964;7.628;2023-07-29T06:19:07;19.80;99.90
2999;DHT22;1509;51.964;7.628;2023-07-29T06:21:34;19.90;99.90
2999;DHT22;1509;51.964;7.628;2023-07-29T06:24:00;19.80;99.90
2999;DHT22;1509;51.964;7.628;2023-07-29T06:26:26;19.90;99.90
2999;DHT22;1509;51.964;7.628;2023-07-29T06:28:51;19.90;99.90
2999;DHT22;1509;51.964;7.628;2023-07-29T06:31:17;19.80;99.90
2999;DHT22;1509;51.964;7.628;2023-07-29T06:33:42;19.70;99.90
2999;DHT22;1509;51.964;7.628;2023-07-29T06:36:08;19.70;99.90
2999;DHT22;1509;51.964;7.628;2023-07-29T06:38:34;19.60;99.90
2999;DHT22;1509;51.964;7.628;2023-07-29T06:40:59;19.60;99.90
2999;DHT22;1509;51.964;7.628;2023-07-29T06:43:25;19.70;99.90
2999;DHT22;1509;51.964;7.628;2023-07-29T06:45:51;19.80;99.90
2999;DHT22;1509;51.964;7.628;2023-07-29T06:50:44;19.90;99.90
2999;DHT22;1509;51.964;7.628;2023-07-29T06:53:10;20.00;99.90
2999;DHT22;1509;51.964;7.628;2023-07-29T06:55:35;20.00;99.90
2999;DHT22;1509;51.964;7.628;2023-07-29T06:58:01;20.00;99.90
2999;DHT22;1509;51.964;7.628;2023-07-29T07:00:27;19.90;99.90
2999;DHT22;1509;51.964;7.628;2023-07-29T07:02:53;20.00;99.90
2999;DHT22;1509;51.964;7.628;2023-07-29T07:05:18;20.00;99.90
2999;DHT22;1509;51.964;7.628;2023-07-29T07:07:44;19.80;99.90
2999;DHT22;1509;51.964;7.628;2023-07-29T07:10:09;19.90;99.90
2999;DHT22;1509;51.964;7.628;2023-07-29T07:12:35;19.80;99.90
2999;DHT22;1509;51.964;7.628;2023-07-29T07:15:01;19.80;99.90
2999;DHT22;1509;51.964;7.628;2023-07-29T07:17:26;19.80;99.90
2999;DHT22;1509;51.964;7.628;2023-07-29T07:19:54;19.80;99.90
2999;DHT22;1509;51.964;7.628;2023-07-29T07:22:20;20.20;99.90
2999;DHT22;1509;51.964;7.628;2023-07-29T07:24:45;19.90;99.90
2999;DHT22;1509;51.964;7.628;2023-07-29T07:27:11;19.90;99.90
2999;DHT22;1509;51.964;7.628;2023-07-29T07:29:37;19.90;99.90
2999;DHT22;1509;51.964;7.628;2023-07-29T07:32:02;19.90;99.90
2999;DHT22;1509;51.964;7.628;2023-07-29T07:34:28;19.90;99.90
2999;DHT22;1509;51.964;7.628;2023-07-29T07:36:54;19.90;99.90
2999;DHT22;1509;51.964;7.628;2023-07-29T07:39:19;20.20;99.90
2999;DHT22;1509;51.964;7.628;2023-07-29T07:41:45;19.90;99.90
2999;DHT22;1509;51.964;7.628;2023-07-29T07:44:11;20.00;99.90
2999;DHT22;1509;51.964;7.628;2023-07-29T07:46:41;20.10;99.90
2999;DHT22;1509;51.964;7.628;2023-07-29T07:49:06;20.30;99.90
2999;DHT22;1509;51.964;7.628;2023-07-29T07:51:32;20.30;99.90
2999;DHT22;1509;51.964;7.628;2023-07-29T07:53:57;20.30;99.90
2999;DHT22;1509;51.964;7.628;2023-07-29T07:56:23;20.50;99.90
2999;DHT22;1509;51.964;7.628;2023-07-29T07:58:49;20.20;99.90
2999;DHT22;1509;51.964;7.628;2023-07-29T08:01:14;20.20;99.90
2999;DHT22;1509;51.964;7.628;2023-07-29T08:03:40;20.20;99.90
2999;DHT22;1509;51.964;7.628;2023-07-29T08:06:05;20.10;99.90
2999;DHT22;1509;51.964;7.628;2023-07-29T08:08:31;20.40;99.90
2999;DHT22;1509;51.964;7.628;2023-07-29T08:10:57;20.50;99.90
2999;DHT22;1509;51.964;7.628;2023-07-29T08:13:23;20.60;99.90
2999;DHT22;1509;51.964;7.628;2023-07-29T08:15:52;20.80;99.90
2999;DHT22;1509;51.964;7.628;2023-07-29T08:18:18;21.00;99.90
2999;DHT22;1509;51.964;7.628;2023-07-29T08:20:57;21.00;99.90
2999;DHT22;1509;51.964;7.628;2023-07-29T08:23:24;21.20;99.90
2999;DHT22;1509;51.964;7.628;2023-07-29T08:25:58;21.50;99.90
2999;DHT22;1509;51.964;7.628;2023-07-29T08:28:34;21.30;99.90
2999;DHT22;1509;51.964;7.628;2023-07-29T08:31:00;21.00;99.90
2999;DHT22;1509;51.964;7.628;2023-07-29T08:33:26;21.20;99.90
2999;DHT22;1509;51.964;7.628;2023-07-29T08:35:52;21.10;99.90
2999;DHT22;1509;51.964;7.628;2023-07-29T08:38:18;21.40;99.90
2999;DHT22;1509;51.964;7.628;2023-07-29T08:40:54;21.50;99.90
2999;DHT22;1509;51.964;7.628;2023-07-29T08:43:29;21.60;99.90
2999;DHT22;1509;51.964;7.628;2023-07-29T08:45:58;21.60;99.90
2999;DHT22;1509;51.964;7.628;2023-07-29T08:48:36;21.40;99.90
2999;DHT22;1509;51.964;7.628;2023-07-29T08:51:11;21.50;99.90
2999;DHT22;1509;51.964;7.628;2023-07-29T08:53:37;20.90;99.90
2999;DHT22;1509;51.964;7.628;2023-07-29T08:56:04;21.40;99.90
2999;DHT22;1509;51.964;7.628;2023-07-29T08:58:31;21.60;99.90
2999;DHT22;1509;51.964;7.628;2023-07-29T09:00:57;21.50;99.90
2999;DHT22;1509;51.964;7.628;2023-07-29T09:03:22;21.60;99.90
2999;DHT22;1509;51.964;7.628;2023-07-29T09:05:48;21.60;99.90
2999;DHT22;1509;51.964;7.628;2023-07-29T09:08:14;21.80;99.90
2999;DHT22;1509;51.964;7.628;2023-07-29T09:10:40;22.00;99.90
2999;DHT22;1509;51.964;7.628;2023-07-29T09:13:07;22.50;99.90
2999;DHT22;1509;51.964;7.628;2023-07-29T09:15:34;22.70;99.90
2999;DHT22;1509;51.964;7.628;2023-07-29T09:18:12;23.60;99.90
2999;DHT22;1509;51.964;7.628;2023-07-29T09:20:39;24.80;99.90
2999;DHT22;1509;51.964;7.628;2023-07-29T09:23:08;24.50;99.90
2999;DHT22;1509;51.964;7.628;2023-07-29T09:25:35;24.30;99.90
2999;DHT22;1509;51.964;7.628;2023-07-29T09:28:02;24.20;99.90
2999;DHT22;1509;51.964;7.628;2023-07-29T09:30:32;24.60;99.90
2999;DHT22;1509;51.964;7.628;2023-07-29T09:32:58;24.30;99.90
2999;DHT22;1509;51.964;7.628;2023-07-29T09:35:27;23.90;99.90
2999;DHT22;1509;51.964;7.628;2023-07-29T09:37:53;24.30;99.90
2999;DHT22;1509;51.964;7.628;2023-07-29T09:40:22;25.20;99.90
2999;DHT22;1509;51.964;7.628;2023-07-29T09:42:52;25.90;99.90
2999;DHT22;1509;51.964;7.628;2023-07-29T09:45:21;26.40;99.90
2999;DHT22;1509;51.964;7.628;2023-07-29T09:47:48;25.90;99.90
2999;DHT22;1509;51.964;7.628;2023-07-29T09:50:13;25.30;99.90
2999;DHT22;1509;51.964;7.628;2023-07-29T09:52:39;25.50;99.90
2999;DHT22;1509;51.964;7.628;2023-07-29T09:55:05;26.30;99.90
2999;DHT22;1509;51.964;7.628;2023-07-29T09:57:32;26.70;99.90
2999;DHT22;1509;51.964;7.628;2023-07-29T09:59:58;27.30;99.90
2999;DHT22;1509;51.964;7.628;2023-07-29T10:02:23;26.60;99.90
2999;DHT22;1509;51.964;7.628;2023-07-29T10:04:52;25.90;99.90
2999;DHT22;1509;51.964;7.628;2023-07-29T10:07:18;25.90;99.90
2999;DHT22;1509;51.964;7.628;2023-07-29T10:09:45;26.70;99.90
2999;DHT22;1509;51.964;7.628;2023-07-29T10:12:11;27.10;99.90
2999;DHT22;1509;51.964;7.628;2023-07-29T10:14:38;27.00;99.90
2999;DHT22;1509;51.964;7.628;2023-07-29T10:17:05;26.00;99.90
2999;DHT22;1509;51.964;7.628;2023-07-29T10:19:31;25.00;99.90
2999;DHT22;1509;51.964;7.628;2023-07-29T10:21:59;24.80;99.90
2999;DHT22;1509;51.964;7.628;2023-07-29T10:24:29;25.00;99.90
2999;DHT22;1509;51.964;7.628;2023-07-29T10:27:00;25.30;99.90
2999;DHT22;1509;51.964;7.628;2023-07-29T10:29:31;25.00;99.90
2999;DHT22;1509;51.964;7.628;2023-07-29T10:32:02;24.80;99.90
2999;DHT22;1509;51.964;7.628;2023-07-29T10:34:30;24.60;99.90
2999;DHT22;1509;51.964;7.628;2023-07-29T10:36:56;24.30;99.90
2999;DHT22;1509;51.964;7.628;2023-07-29T10:39:24;23.80;99.90
2999;DHT22;1509;51.964;7.628;2023-07-29T10:44:45;23.50;99.90
2999;DHT22;1509;51.964;7.628;2023-07-29T10:47:12;23.60;99.90
2999;DHT22;1509;51.964;7.628;2023-07-29T10:49:42;23.90;99.90
2999;DHT22;1509;51.964;7.628;2023-07-29T10:52:15;24.30;99.90
2999;DHT22;1509;51.964;7.628;2023-07-29T10:54:45;24.80;99.90
2999;DHT22;1509;51.964;7.628;2023-07-29T10:57:15;25.00;99.90
2999;DHT22;1509;51.964;7.628;2023-07-29T10:59:42;25.10;99.90
2999;DHT22;1509;51.964;7.628;2023-07-29T11:02:18;24.90;99.90
2999;DHT22;1509;51.964;7.628;2023-07-29T11:04:50;25.10;99.90
2999;DHT22;1509;51.964;7.628;2023-07-29T11:20:05;27.40;99.90
2999;DHT22;1509;51.964;7.628;2023-07-29T11:22:33;28.00;99.90
2999;DHT22;1509;51.964;7.628;2023-07-29T11:24:58;27.20;99.90
2999;DHT22;1509;51.964;7.628;2023-07-29T11:27:24;26.30;99.90
2999;DHT22;1509;51.964;7.628;2023-07-29T11:29:50;25.60;99.90
2999;DHT22;1509;51.964;7.628;2023-07-29T11:32:16;25.60;99.90
2999;DHT22;1509;51.964;7.628;2023-07-29T11:34:42;25.90;99.90
2999;DHT22;1509;51.964;7.628;2023-07-29T11:37:11;25.70;99.90
2999;DHT22;1509;51.964;7.628;2023-07-29T11:39:46;25.50;99.90
2999;DHT22;1509;51.964;7.628;2023-07-29T11:42:12;26.10;99.90
2999;DHT22;1509;51.964;7.628;2023-07-29T11:44:38;25.60;99.90
2999;DHT22;1509;51.964;7.628;2023-07-29T11:47:10;25.70;99.90
2999;DHT22;1509;51.964;7.628;2023-07-29T11:49:38;25.70;99.90
2999;DHT22;1509;51.964;7.628;2023-07-29T11:52:07;25.10;99.90
2999;DHT22;1509;51.964;7.628;2023-07-29T11:54:37;25.20;99.90
2999;DHT22;1509;51.964;7.628;2023-07-29T11:57:07;26.10;99.90
2999;DHT22;1509;51.964;7.628;2023-07-29T11:59:34;26.50;99.90
2999;DHT22;1509;51.964;7.628;2023-07-29T12:02:01;27.20;99.90
2999;DHT22;1509;51.964;7.628;2023-07-29T12:04:28;26.90;99.90
2999;DHT22;1509;51.964;7.628;2023-07-29T12:06:55;26.20;99.90
2999;DHT22;1509;51.964;7.628;2023-07-29T12:09:21;25.40;99.90
2999;DHT22;1509;51.964;7.628;2023-07-29T12:11:46;25.00;99.90
2999;DHT22;1509;51.964;7.628;2023-07-29T12:14:12;24.80;99.90
2999;DHT22;1509;51.964;7.628;2023-07-29T12:16:42;25.60;99.90
2999;DHT22;1509;51.964;7.628;2023-07-29T12:19:08;25.80;99.90
2999;DHT22;1509;51.964;7.628;2023-07-29T12:21:35;25.40;99.90
2999;DHT22;1509;51.964;7.628;2023-07-29T12:24:02;25.50;99.90
2999;DHT22;1509;51.964;7.628;2023-07-29T12:26:29;25.30;99.90
2999;DHT22;1509;51.964;7.628;2023-07-29T12:28:54;25.60;99.90
2999;DHT22;1509;51.964;7.628;2023-07-29T12:31:21;25.20;99.90
2999;DHT22;1509;51.964;7.628;2023-07-29T12:33:47;25.00;99.90
2999;DHT22;1509;51.964;7.628;2023-07-29T12:36:13;24.80;99.90
2999;DHT22;1509;51.964;7.628;2023-07-29T12:38:38;25.20;99.90
2999;DHT22;1509;51.964;7.628;2023-07-29T12:41:04;25.10;99.90
2999;DHT22;1509;51.964;7.628;2023-07-29T12:43:29;25.20;99.90
2999;DHT22;1509;51.964;7.628;2023-07-29T12:45:57;26.10;99.90
2999;DHT22;1509;51.964;7.628;2023-07-29T12:48:23;27.00;99.90
2999;DHT22;1509;51.964;7.628;2023-07-29T12:50:48;26.80;99.90
2999;DHT22;1509;51.964;7.628;2023-07-29T12:53:14;26.10;99.90
2999;DHT22;1509;51.964;7.628;2023-07-29T12:55:39;26.30;99.90
2999;DHT22;1509;51.964;7.628;2023-07-29T12:58:05;26.70;99.90
2999;DHT22;1509;51.964;7.628;2023-07-29T13:00:31;27.20;99.90
2999;DHT22;1509;51.964;7.628;2023-07-29T13:02:56;28.40;99.90
2999;DHT22;1509;51.964;7.628;2023-07-29T13:05:22;28.90;99.90
2999;DHT22;1509;51.964;7.628;2023-07-29T13:07:47;28.60;99.90
2999;DHT22;1509;51.964;7.628;2023-07-29T13:10:13;28.00;99.90
2999;DHT22;1509;51.964;7.628;2023-07-29T13:12:39;27.80;99.90
2999;DHT22;1509;51.964;7.628;2023-07-29T13:15:06;27.40;99.90
2999;DHT22;1509;51.964;7.628;2023-07-29T13:17:33;26.90;99.90
2999;DHT22;1509;51.964;7.628;2023-07-29T13:19:59;26.70;99.90
2999;DHT22;1509;51.964;7.628;2023-07-29T13:22:25;26.50;99.90
2999;DHT22;1509;51.964;7.628;2023-07-29T13:24:50;26.00;99.90
2999;DHT22;1509;51.964;7.628;2023-07-29T13:27:16;25.60;99.90
2999;DHT22;1509;51.964;7.628;2023-07-29T13:29:41;25.30;99.90
2999;DHT22;1509;51.964;7.628;2023-07-29T13:32:09;25.00;99.90
2999;DHT22;1509;51.964;7.628;2023-07-29T13:34:34;25.10;99.90
2999;DHT22;1509;51.964;7.628;2023-07-29T13:37:00;25.10;99.90
2999;DHT22;1509;51.964;7.628;2023-07-29T13:39:26;25.20;99.90
2999;DHT22;1509;51.964;7.628;2023-07-29T13:41:52;25.10;99.90
2999;DHT22;1509;51.964;7.628;2023-07-29T13:44:18;25.00;99.90
2999;DHT22;1509;51.964;7.628;2023-07-29T13:46:44;24.80;99.90
2999;DHT22;1509;51.964;7.628;2023-07-29T13:49:09;24.60;99.90
2999;DHT22;1509;51.964;7.628;2023-07-29T13:51:35;24.50;99.90
2999;DHT22;1509;51.964;7.628;2023-07-29T13:54:01;24.40;99.90
2999;DHT22;1509;51.964;7.628;2023-07-29T13:56:26;24.40;99.90
2999;DHT22;1509;51.964;7.628;2023-07-29T13:58:52;24.20;99.90
2999;DHT22;1509;51.964;7.628;2023-07-29T14:01:18;23.90;99.90
2999;DHT22;1509;51.964;7.628;2023-07-29T14:03:43;23.80;99.90
2999;DHT22;1509;51.964;7.628;2023-07-29T14:06:09;23.60;99.90
2999;DHT22;1509;51.964;7.628;2023-07-29T14:08:34;23.30;99.90
2999;DHT22;1509;51.964;7.628;2023-07-29T14:11:00;23.00;99.90
2999;DHT22;1509;51.964;7.628;2023-07-29T14:13:26;22.80;99.90
2999;DHT22;1509;51.964;7.628;2023-07-29T14:15:52;22.80;99.90
2999;DHT22;1509;51.964;7.628;2023-07-29T14:18:17;22.80;99.90
2999;DHT22;1509;51.964;7.628;2023-07-29T14:20:43;22.50;99.90
2999;DHT22;1509;51.964;7.628;2023-07-29T14:23:09;22.30;99.90
2999;DHT22;1509;51.964;7.628;2023-07-29T14:25:34;22.10;99.90
2999;DHT22;1509;51.964;7.628;2023-07-29T14:28:00;21.90;99.90
2999;DHT22;1509;51.964;7.628;2023-07-29T14:30:25;21.50;99.90
2999;DHT22;1509;51.964;7.628;2023-07-29T14:32:51;20.70;99.90
2999;DHT22;1509;51.964;7.628;2023-07-29T14:35:17;19.90;99.90
2999;DHT22;1509;51.964;7.628;2023-07-29T14:37:42;19.60;99.90
2999;DHT22;1509;51.964;7.628;2023-07-29T14:40:08;18.90;99.90
2999;DHT22;1509;51.964;7.628;2023-07-29T14:42:33;18.70;99.90
2999;DHT22;1509;51.964;7.628;2023-07-29T14:44:59;18.40;99.90
2999;DHT22;1509;51.964;7.628;2023-07-29T14:47:25;18.20;99.90
2999;DHT22;1509;51.964;7.628;2023-07-29T14:49:50;18.30;99.90
2999;DHT22;1509;51.964;7.628;2023-07-29T14:52:16;18.00;99.90
2999;DHT22;1509;51.964;7.628;2023-07-29T14:54:41;17.90;99.90
2999;DHT22;1509;51.964;7.628;2023-07-29T14:57:10;18.10;99.90
2999;DHT22;1509;51.964;7.628;2023-07-29T14:59:35;17.70;99.90
2999;DHT22;1509;51.964;7.628;2023-07-29T15:02:01;17.70;99.90
2999;DHT22;1509;51.964;7.628;2023-07-29T15:04:27;17.60;99.90
2999;DHT22;1509;51.964;7.628;2023-07-29T15:06:52;17.60;99.90
2999;DHT22;1509;51.964;7.628;2023-07-29T15:09:18;17.60;99.90
2999;DHT22;1509;51.964;7.628;2023-07-29T15:11:43;17.50;99.90
2999;DHT22;1509;51.964;7.628;2023-07-29T15:14:09;17.60;99.90
2999;DHT22;1509;51.964;7.628;2023-07-29T15:16:34;17.60;99.90
2999;DHT22;1509;51.964;7.628;2023-07-29T15:19:02;17.90;99.90
2999;DHT22;1509;51.964;7.628;2023-07-29T15:21:28;17.90;99.90
2999;DHT22;1509;51.964;7.628;2023-07-29T15:23:54;18.10;99.90
2999;DHT22;1509;51.964;7.628;2023-07-29T15:26:19;18.10;99.90
2999;DHT22;1509;51.964;7.628;2023-07-29T15:28:45;18.40;99.90
2999;DHT22;1509;51.964;7.628;2023-07-29T15:31:12;18.50;99.90
2999;DHT22;1509;51.964;7.628;2023-07-29T15:33:38;18.70;99.90
2999;DHT22;1509;51.964;7.628;2023-07-29T15:36:04;18.90;99.90
2999;DHT22;1509;51.964;7.628;2023-07-29T15:38:30;19.00;99.90
2999;DHT22;1509;51.964;7.628;2023-07-29T15:40:55;19.10;99.90
2999;DHT22;1509;51.964;7.628;2023-07-29T15:43:22;19.10;99.90
2999;DHT22;1509;51.964;7.628;2023-07-29T15:45:47;19.20;99.90
2999;DHT22;1509;51.964;7.628;2023-07-29T15:48:13;19.30;99.90
2999;DHT22;1509;51.964;7.628;2023-07-29T15:50:38;19.70;99.90
2999;DHT22;1509;51.964;7.628;2023-07-29T15:53:04;19.40;99.90
2999;DHT22;1509;51.964;7.628;2023-07-29T15:55:30;19.50;99.90
2999;DHT22;1509;51.964;7.628;2023-07-29T15:57:56;19.50;99.90
2999;DHT22;1509;51.964;7.628;2023-07-29T16:00:21;19.60;99.90
2999;DHT22;1509;51.964;7.628;2023-07-29T16:02:50;19.70;99.90
2999;DHT22;1509;51.964;7.628;2023-07-29T16:05:15;19.70;99.90
2999;DHT22;1509;51.964;7.628;2023-07-29T16:07:41;19.70;99.90
2999;DHT22;1509;51.964;7.628;2023-07-29T16:10:08;19.80;99.90
2999;DHT22;1509;51.964;7.628;2023-07-29T16:12:33;19.90;99.90
2999;DHT22;1509;51.964;7.628;2023-07-29T16:15:04;19.90;99.90
2999;DHT22;1509;51.964;7.628;2023-07-29T16:17:30;20.00;99.90
2999;DHT22;1509;51.964;7.628;2023-07-29T16:20:00;20.30;99.90
2999;DHT22;1509;51.964;7.628;2023-07-29T16:22:26;20.10;99.90
2999;DHT22;1509;51.964;7.628;2023-07-29T16:24:52;20.20;99.90
2999;DHT22;1509;51.964;7.628;2023-07-29T16:27:18;20.30;99.90